Weather reports worldwide

Advertisment
Cairngorm, United Kingdom (3065): temperature & dewpoint: 14.02.2018 05:00:00 - 20.02.2018 05:00:00 (GMT)Cairngorm, United Kingdom (3065): wind speed & gusts: 14.02.2018 05:00:00 - 20.02.2018 05:00:00 (GMT)Cairngorm, United Kingdom (3065): wind direction: 14.02.2018 05:00:00 - 20.02.2018 05:00:00 (GMT)
Date & Time tt [°C] td [°C] ff [km/h] ff [kn] fx [km/h] fx [kn] dd
20.02.2018 05:00:00 -2,6 -2,6 - - - - -
20.02.2018 04:00:00 -2,7 -2,7 - - 89 48 -
20.02.2018 03:00:00 -2,7 -2,7 67 36 85 46 WNW
20.02.2018 02:00:00 -2,2 -2,2 70 38 81 44 WNW
20.02.2018 01:00:00 -1,4 -1,4 70 38 78 42 WNW
20.02.2018 00:00:00 -1,0 -1,0 50 27 55 30 WNW
19.02.2018 23:00:00 -0,6 -0,6 48 26 63 34 WNW
19.02.2018 22:00:00 2,2 2,2 35 19 48 26 W
19.02.2018 21:00:00 3,1 3,1 18 10 - - W
19.02.2018 20:00:00 3,6 3,6 16 9 - - W
19.02.2018 19:00:00 2,9 2,9 22 12 - - W
19.02.2018 18:00:00 2,2 2,2 24 13 - - WNW
19.02.2018 17:00:00 2,2 2,2 26 14 - - W
19.02.2018 16:00:00 3,1 3,1 35 19 50 27 W
19.02.2018 15:00:00 2,2 2,1 34 18 52 28 WNW
19.02.2018 14:00:00 2,0 2,0 41 22 55 30 WNW
19.02.2018 13:00:00 2,5 2,4 50 27 59 32 WNW
19.02.2018 12:00:00 2,9 2,8 44 24 65 35 WNW
19.02.2018 11:00:00 3,0 3,0 44 24 55 30 WNW
19.02.2018 10:00:00 3,3 3,3 42 23 54 29 WNW
19.02.2018 09:00:00 3,2 3,2 41 22 52 28 WNW
19.02.2018 08:00:00 3,2 3,2 41 22 52 28 WNW
19.02.2018 07:00:00 3,4 3,4 42 23 54 29 WNW
19.02.2018 06:00:00 3,3 3,3 44 24 55 30 WNW
19.02.2018 05:00:00 3,0 3,0 48 26 59 32 WNW
19.02.2018 04:00:00 3,3 3,3 52 28 61 33 WNW
19.02.2018 03:00:00 3,1 3,1 41 22 48 26 WNW
19.02.2018 02:00:00 2,7 2,7 39 21 52 28 WNW
19.02.2018 01:00:00 2,7 2,7 39 21 52 28 W
19.02.2018 00:00:00 2,5 2,5 34 18 54 29 W
18.02.2018 23:00:00 0,6 0,6 31 17 55 30 W
18.02.2018 22:00:00 0,0 0,0 26 14 48 26 W
18.02.2018 21:00:00 -0,1 -0,1 35 19 57 31 SW
18.02.2018 20:00:00 -0,6 -0,6 37 20 - - SW
18.02.2018 19:00:00 -0,9 -0,9 31 17 - - SW
18.02.2018 18:00:00 -1,4 -1,4 39 21 52 28 SW
18.02.2018 17:00:00 -1,5 -1,5 42 23 55 30 SW
18.02.2018 16:00:00 -2,1 -2,1 39 21 54 29 SW
18.02.2018 15:00:00 -2,9 -2,9 29 16 - - SSW
18.02.2018 14:00:00 -3,4 -3,4 24 13 - - SW
18.02.2018 13:00:00 -3,6 -3,6 34 18 - - SSW
18.02.2018 12:00:00 -3,9 -3,9 18 10 - - SSW
18.02.2018 11:00:00 -4,1 -4,1 37 20 - - SSW
18.02.2018 10:00:00 -4,1 -4,1 28 15 - - SW
18.02.2018 09:00:00 -4,0 -4,1 28 15 - - SW
18.02.2018 08:00:00 -4,2 -4,2 24 13 - - SW
18.02.2018 07:00:00 -4,3 -4,3 29 16 65 35 WSW
18.02.2018 06:00:00 -4,2 -4,3 41 22 52 28 SW
18.02.2018 05:00:00 -3,9 -3,9 31 17 - - SW
18.02.2018 04:00:00 -3,8 -3,8 28 15 52 28 SW
18.02.2018 03:00:00 -4,0 -4,1 39 21 52 28 WSW
18.02.2018 02:00:00 -3,9 -4,0 26 14 - - SW
18.02.2018 01:00:00 -3,8 -4,0 34 18 52 28 W
18.02.2018 00:00:00 -4,0 -4,2 42 23 54 29 W
17.02.2018 23:00:00 -4,2 -4,4 39 21 59 32 W
17.02.2018 22:00:00 -4,3 -4,5 41 22 59 32 W
17.02.2018 21:00:00 -4,3 -4,5 35 19 67 36 WSW
17.02.2018 20:00:00 -4,2 -4,4 48 26 63 34 W
17.02.2018 19:00:00 -4,3 -4,5 46 25 68 37 W
17.02.2018 18:00:00 -4,7 -4,9 59 32 80 43 W
17.02.2018 17:00:00 -4,6 -4,8 46 25 80 43 WSW
17.02.2018 16:00:00 -4,1 -4,3 52 28 85 46 WSW
17.02.2018 15:00:00 -4,2 -4,4 57 31 70 38 WSW
17.02.2018 14:00:00 -3,9 -4,0 48 26 65 35 WSW
17.02.2018 13:00:00 -3,9 -4,1 46 25 74 40 WSW
17.02.2018 12:00:00 -3,9 -4,0 54 29 80 43 WSW
17.02.2018 11:00:00 -4,0 -4,1 63 34 91 49 WSW
17.02.2018 10:00:00 -3,7 -3,8 76 41 98 53 SW
17.02.2018 09:00:00 -4,1 -4,2 63 34 87 47 SW
17.02.2018 08:00:00 -4,0 -4,1 72 39 96 52 SW
17.02.2018 07:00:00 -4,2 -4,4 61 33 94 51 SW
17.02.2018 06:00:00 -4,5 -4,7 70 38 91 49 SW
17.02.2018 05:00:00 -4,6 -4,8 63 34 91 49 SW
17.02.2018 04:00:00 -4,1 -4,2 67 36 93 50 SW
17.02.2018 03:00:00 -3,2 -3,3 67 36 89 48 SW
17.02.2018 02:00:00 -3,3 -3,3 61 33 78 42 SW
17.02.2018 01:00:00 -2,9 -3,0 65 35 83 45 SSW
17.02.2018 00:00:00 -2,7 -2,7 74 40 106 57 SSW
16.02.2018 23:00:00 -3,0 -3,1 98 53 122 66 SSW
16.02.2018 22:00:00 -3,3 -3,3 111 60 130 70 SSW
16.02.2018 21:00:00 -3,1 -3,2 102 55 119 64 S
16.02.2018 20:00:00 -3,4 -3,5 104 56 124 67 SSW
16.02.2018 19:00:00 -3,4 -3,5 91 49 111 60 SSW
16.02.2018 18:00:00 -3,6 -3,7 91 49 113 61 SSW
16.02.2018 17:00:00 -3,8 -3,9 89 48 107 58 SSW
16.02.2018 16:00:00 -4,1 -4,2 76 41 94 51 SSW
16.02.2018 15:00:00 -4,5 -4,7 70 38 96 52 SSW
16.02.2018 14:00:00 -4,7 -5,0 61 33 91 49 SW
16.02.2018 13:00:00 -4,7 -4,9 65 35 87 47 WSW
16.02.2018 12:00:00 -4,6 -4,9 65 35 96 52 WSW
16.02.2018 11:00:00 -5,0 -5,3 70 38 104 56 WSW
16.02.2018 10:00:00 -5,4 -5,7 63 34 102 55 W
16.02.2018 09:00:00 -5,4 -5,7 67 36 96 52 WSW
16.02.2018 08:00:00 -5,6 -6,0 55 30 83 45 WSW
16.02.2018 07:00:00 -5,4 -5,7 59 32 85 46 WSW
16.02.2018 06:00:00 -5,5 -5,9 59 32 94 51 WSW
16.02.2018 05:00:00 -6,0 -6,4 59 32 107 58 WSW
16.02.2018 04:00:00 -5,8 -6,2 65 35 107 58 WSW
16.02.2018 03:00:00 -5,8 -6,2 76 41 111 60 W
16.02.2018 02:00:00 -5,7 -6,1 74 40 106 57 W
16.02.2018 01:00:00 -5,6 -5,9 85 46 107 58 W
16.02.2018 00:00:00 -5,4 -5,7 74 40 102 55 W
15.02.2018 23:00:00 -5,2 -5,5 68 37 102 55 W
15.02.2018 22:00:00 -4,9 -5,1 74 40 102 55 W
15.02.2018 21:00:00 -4,7 -4,9 70 38 104 56 W
15.02.2018 20:00:00 -4,6 -4,8 76 41 104 56 W
15.02.2018 19:00:00 -4,4 -4,6 67 36 100 54 W
15.02.2018 18:00:00 -4,4 -4,5 68 37 115 62 W
15.02.2018 17:00:00 -4,1 -4,3 74 40 115 62 W
15.02.2018 16:00:00 -4,3 -4,5 70 38 126 68 WSW
15.02.2018 15:00:00 -4,5 -4,7 94 51 143 77 WSW
15.02.2018 14:00:00 -4,7 -4,9 109 59 135 73 WSW
15.02.2018 13:00:00 -5,2 -5,5 94 51 131 71 WSW
15.02.2018 12:00:00 -5,7 -6,0 91 49 124 67 SW
15.02.2018 11:00:00 -5,9 -6,3 102 55 122 66 SW
15.02.2018 10:00:00 -6,1 -6,5 98 53 130 70 SW
15.02.2018 09:00:00 -6,1 -6,5 83 45 120 65 SW
15.02.2018 08:00:00 -6,2 -6,6 80 43 119 64 SW
15.02.2018 07:00:00 -6,1 -6,5 85 46 117 63 SW
15.02.2018 06:00:00 -5,9 -6,3 70 38 115 62 SW
15.02.2018 05:00:00 -5,9 -6,3 78 42 122 66 SW
15.02.2018 04:00:00 -5,2 -5,5 81 44 128 69 SW
15.02.2018 03:00:00 -4,9 -5,2 78 42 124 67 SSW
15.02.2018 02:00:00 -4,9 -5,1 80 43 115 62 SSW
15.02.2018 01:00:00 -4,9 -5,1 78 42 107 58 SW
15.02.2018 00:00:00 -5,0 -5,3 68 37 107 58 SW
14.02.2018 23:00:00 -4,6 -4,8 72 39 104 56 SW
14.02.2018 22:00:00 -4,4 -4,6 80 43 107 58 SSW
14.02.2018 21:00:00 -4,1 -4,3 63 34 102 55 SW
14.02.2018 20:00:00 -4,4 -4,6 81 44 113 61 SW
14.02.2018 19:00:00 -3,7 -3,8 70 38 98 53 SW
14.02.2018 18:00:00 -3,7 -3,8 65 35 104 56 SW
14.02.2018 17:00:00 -3,9 -4,1 93 50 113 61 S
14.02.2018 16:00:00 -4,9 -5,2 93 50 106 57 S
14.02.2018 15:00:00 -5,7 -6,1 - - - - -
14.02.2018 14:00:00 -6,1 -6,6 - - - - -
14.02.2018 13:00:00 -6,6 -7,1 - - - - -
14.02.2018 12:00:00 -6,6 -7,1 - - - - -
14.02.2018 11:00:00 -6,7 -7,1 - - - - -
14.02.2018 10:00:00 -6,6 -7,1 - - - - -
14.02.2018 09:00:00 -6,7 -7,1 - - 176 95 -
14.02.2018 08:00:00 -6,8 -7,3 - - 159 86 -
14.02.2018 07:00:00 -6,9 -7,3 131 71 169 91 SSE
14.02.2018 06:00:00 -6,9 -7,4 111 60 148 80 S
14.02.2018 05:00:00 -6,8 -7,3 113 61 141 76 S

tt = temperature
td = dewpoint
ff = wind speed
fx = gusts
dd = wind direction

Next stations